sensor_id;sensor_type;location;lat;lon;timestamp;temperature;humidity
3330;DHT22;1677;49.576;10.990;2023-07-31T00:01:05;18.60;96.90
3330;DHT22;1677;49.576;10.990;2023-07-31T00:03:30;18.30;97.60
3330;DHT22;1677;49.576;10.990;2023-07-31T00:05:55;18.30;97.70
3330;DHT22;1677;49.576;10.990;2023-07-31T00:08:21;18.20;98.10
3330;DHT22;1677;49.576;10.990;2023-07-31T00:10:47;18.10;98.00
3330;DHT22;1677;49.576;10.990;2023-07-31T00:13:12;18.10;98.30
3330;DHT22;1677;49.576;10.990;2023-07-31T00:15:38;18.30;98.50
3330;DHT22;1677;49.576;10.990;2023-07-31T00:18:03;19.10;97.30
3330;DHT22;1677;49.576;10.990;2023-07-31T00:20:29;19.80;95.90
3330;DHT22;1677;49.576;10.990;2023-07-31T00:22:54;20.30;94.90
3330;DHT22;1677;49.576;10.990;2023-07-31T00:25:20;20.30;94.50
3330;DHT22;1677;49.576;10.990;2023-07-31T00:27:45;20.00;95.00
3330;DHT22;1677;49.576;10.990;2023-07-31T00:30:11;19.50;95.60
3330;DHT22;1677;49.576;10.990;2023-07-31T00:32:37;19.40;95.70
3330;DHT22;1677;49.576;10.990;2023-07-31T00:35:02;19.10;96.60
3330;DHT22;1677;49.576;10.990;2023-07-31T00:37:28;18.90;96.80
3330;DHT22;1677;49.576;10.990;2023-07-31T00:39:53;18.70;97.30
3330;DHT22;1677;49.576;10.990;2023-07-31T00:42:19;18.50;97.60
3330;DHT22;1677;49.576;10.990;2023-07-31T00:44:44;18.50;97.60
3330;DHT22;1677;49.576;10.990;2023-07-31T00:47:10;18.40;98.10
3330;DHT22;1677;49.576;10.990;2023-07-31T00:49:35;18.30;98.20
3330;DHT22;1677;49.576;10.990;2023-07-31T00:52:01;18.20;98.50
3330;DHT22;1677;49.576;10.990;2023-07-31T00:54:27;18.20;98.70
3330;DHT22;1677;49.576;10.990;2023-07-31T00:56:53;18.30;98.80
3330;DHT22;1677;49.576;10.990;2023-07-31T00:59:19;18.90;98.00
3330;DHT22;1677;49.576;10.990;2023-07-31T01:01:45;19.60;97.10
3330;DHT22;1677;49.576;10.990;2023-07-31T01:04:10;20.20;95.80
3330;DHT22;1677;49.576;10.990;2023-07-31T01:06:52;20.50;94.80
3330;DHT22;1677;49.576;10.990;2023-07-31T01:12:02;19.80;95.30
3330;DHT22;1677;49.576;10.990;2023-07-31T01:14:28;19.50;95.90
3330;DHT22;1677;49.576;10.990;2023-07-31T01:16:54;19.00;96.90
3330;DHT22;1677;49.576;10.990;2023-07-31T01:19:23;18.60;98.00
3330;DHT22;1677;49.576;10.990;2023-07-31T01:24:21;18.40;99.00
3330;DHT22;1677;49.576;10.990;2023-07-31T01:26:49;18.30;99.20
3330;DHT22;1677;49.576;10.990;2023-07-31T01:29:19;18.30;99.10
3330;DHT22;1677;49.576;10.990;2023-07-31T01:31:48;18.20;99.30
3330;DHT22;1677;49.576;10.990;2023-07-31T01:34:13;18.20;99.40
3330;DHT22;1677;49.576;10.990;2023-07-31T01:36:40;18.30;99.80
3330;DHT22;1677;49.576;10.990;2023-07-31T01:39:06;18.80;99.00
3330;DHT22;1677;49.576;10.990;2023-07-31T01:41:31;19.60;97.70
3330;DHT22;1677;49.576;10.990;2023-07-31T01:43:57;20.40;95.80
3330;DHT22;1677;49.576;10.990;2023-07-31T01:46:22;20.70;94.70
3330;DHT22;1677;49.576;10.990;2023-07-31T01:48:48;20.60;94.50
3330;DHT22;1677;49.576;10.990;2023-07-31T01:51:13;20.40;94.70
3330;DHT22;1677;49.576;10.990;2023-07-31T01:53:39;19.90;95.50
3330;DHT22;1677;49.576;10.990;2023-07-31T01:56:04;19.60;96.10
3330;DHT22;1677;49.576;10.990;2023-07-31T01:58:29;19.20;96.90
3330;DHT22;1677;49.576;10.990;2023-07-31T02:00:55;19.10;97.30
3330;DHT22;1677;49.576;10.990;2023-07-31T02:03:20;18.80;97.70
3330;DHT22;1677;49.576;10.990;2023-07-31T02:05:46;18.80;98.00
3330;DHT22;1677;49.576;10.990;2023-07-31T02:08:13;18.50;98.30
3330;DHT22;1677;49.576;10.990;2023-07-31T02:10:38;18.40;98.80
3330;DHT22;1677;49.576;10.990;2023-07-31T02:13:04;18.20;99.30
3330;DHT22;1677;49.576;10.990;2023-07-31T02:15:29;18.00;99.80
3330;DHT22;1677;49.576;10.990;2023-07-31T02:17:55;18.20;99.80
3330;DHT22;1677;49.576;10.990;2023-07-31T02:20:20;18.90;98.80
3330;DHT22;1677;49.576;10.990;2023-07-31T02:22:46;19.70;97.40
3330;DHT22;1677;49.576;10.990;2023-07-31T02:25:11;20.10;96.20
3330;DHT22;1677;49.576;10.990;2023-07-31T02:27:37;20.10;96.00
3330;DHT22;1677;49.576;10.990;2023-07-31T02:30:02;19.80;96.20
3330;DHT22;1677;49.576;10.990;2023-07-31T02:32:28;19.40;96.90
3330;DHT22;1677;49.576;10.990;2023-07-31T02:34:53;19.10;97.60
3330;DHT22;1677;49.576;10.990;2023-07-31T02:37:18;18.90;98.10
3330;DHT22;1677;49.576;10.990;2023-07-31T02:39:44;18.50;98.60
3330;DHT22;1677;49.576;10.990;2023-07-31T02:42:09;18.30;99.20
3330;DHT22;1677;49.576;10.990;2023-07-31T02:44:35;18.20;99.50
3330;DHT22;1677;49.576;10.990;2023-07-31T02:47:00;18.00;99.90
3330;DHT22;1677;49.576;10.990;2023-07-31T02:49:26;18.00;99.90
3330;DHT22;1677;49.576;10.990;2023-07-31T02:51:51;17.80;99.90
3330;DHT22;1677;49.576;10.990;2023-07-31T02:54:17;17.80;99.90
3330;DHT22;1677;49.576;10.990;2023-07-31T02:56:42;17.80;99.90
3330;DHT22;1677;49.576;10.990;2023-07-31T02:59:08;18.50;99.90
3330;DHT22;1677;49.576;10.990;2023-07-31T03:01:33;19.10;99.00
3330;DHT22;1677;49.576;10.990;2023-07-31T03:03:59;19.90;97.40
3330;DHT22;1677;49.576;10.990;2023-07-31T03:06:24;20.40;96.00
3330;DHT22;1677;49.576;10.990;2023-07-31T03:08:51;20.20;96.10
3330;DHT22;1677;49.576;10.990;2023-07-31T03:11:16;19.80;96.50
3330;DHT22;1677;49.576;10.990;2023-07-31T03:13:42;19.50;97.10
3330;DHT22;1677;49.576;10.990;2023-07-31T03:16:07;19.20;97.70
3330;DHT22;1677;49.576;10.990;2023-07-31T03:18:33;18.90;98.50
3330;DHT22;1677;49.576;10.990;2023-07-31T03:20:58;18.60;99.10
3330;DHT22;1677;49.576;10.990;2023-07-31T03:23:24;18.50;99.50
3330;DHT22;1677;49.576;10.990;2023-07-31T03:28:22;18.20;99.90
3330;DHT22;1677;49.576;10.990;2023-07-31T03:30:48;18.20;99.90
3330;DHT22;1677;49.576;10.990;2023-07-31T03:33:13;18.10;99.90
3330;DHT22;1677;49.576;10.990;2023-07-31T03:35:38;18.00;99.90
3330;DHT22;1677;49.576;10.990;2023-07-31T03:38:04;18.20;99.90
3330;DHT22;1677;49.576;10.990;2023-07-31T03:40:29;18.70;99.90
3330;DHT22;1677;49.576;10.990;2023-07-31T03:42:55;19.60;98.30
3330;DHT22;1677;49.576;10.990;2023-07-31T03:45:20;20.10;97.10
3330;DHT22;1677;49.576;10.990;2023-07-31T03:47:46;20.10;96.60
3330;DHT22;1677;49.576;10.990;2023-07-31T03:50:11;19.70;97.00
3330;DHT22;1677;49.576;10.990;2023-07-31T03:52:37;19.20;97.80
3330;DHT22;1677;49.576;10.990;2023-07-31T03:55:02;18.70;98.40
3330;DHT22;1677;49.576;10.990;2023-07-31T03:57:28;18.30;99.30
3330;DHT22;1677;49.576;10.990;2023-07-31T03:59:53;18.10;99.90
3330;DHT22;1677;49.576;10.990;2023-07-31T04:02:19;17.90;99.90
3330;DHT22;1677;49.576;10.990;2023-07-31T04:04:44;17.90;99.90
3330;DHT22;1677;49.576;10.990;2023-07-31T04:07:10;17.90;99.90
3330;DHT22;1677;49.576;10.990;2023-07-31T04:09:35;17.70;99.90
3330;DHT22;1677;49.576;10.990;2023-07-31T04:12:01;17.60;99.90
3330;DHT22;1677;49.576;10.990;2023-07-31T04:14:26;17.60;99.90
3330;DHT22;1677;49.576;10.990;2023-07-31T04:16:52;17.60;99.90
3330;DHT22;1677;49.576;10.990;2023-07-31T04:19:17;17.70;99.90
3330;DHT22;1677;49.576;10.990;2023-07-31T04:21:43;18.30;99.90
3330;DHT22;1677;49.576;10.990;2023-07-31T04:24:09;19.10;99.30
3330;DHT22;1677;49.576;10.990;2023-07-31T04:26:34;19.60;98.00
3330;DHT22;1677;49.576;10.990;2023-07-31T04:28:59;19.80;97.30
3330;DHT22;1677;49.576;10.990;2023-07-31T04:31:25;19.30;97.80
3330;DHT22;1677;49.576;10.990;2023-07-31T04:33:50;18.70;98.80
3330;DHT22;1677;49.576;10.990;2023-07-31T04:36:16;18.30;99.60
3330;DHT22;1677;49.576;10.990;2023-07-31T04:38:41;17.90;99.90
3330;DHT22;1677;49.576;10.990;2023-07-31T04:41:07;17.70;99.90
3330;DHT22;1677;49.576;10.990;2023-07-31T04:43:32;17.60;99.90
3330;DHT22;1677;49.576;10.990;2023-07-31T04:45:58;17.60;99.90
3330;DHT22;1677;49.576;10.990;2023-07-31T04:48:23;17.50;99.90
3330;DHT22;1677;49.576;10.990;2023-07-31T04:50:49;17.50;99.90
3330;DHT22;1677;49.576;10.990;2023-07-31T04:53:14;17.40;99.90
3330;DHT22;1677;49.576;10.990;2023-07-31T04:55:40;17.40;99.90
3330;DHT22;1677;49.576;10.990;2023-07-31T04:58:05;17.40;99.90
3330;DHT22;1677;49.576;10.990;2023-07-31T05:00:31;17.60;99.90
3330;DHT22;1677;49.576;10.990;2023-07-31T05:02:56;18.10;99.90
3330;DHT22;1677;49.576;10.990;2023-07-31T05:05:22;18.80;99.90
3330;DHT22;1677;49.576;10.990;2023-07-31T05:07:47;19.40;99.60
3330;DHT22;1677;49.576;10.990;2023-07-31T05:10:13;19.80;98.30
3330;DHT22;1677;49.576;10.990;2023-07-31T05:12:38;19.50;98.40
3330;DHT22;1677;49.576;10.990;2023-07-31T05:15:04;19.20;98.80
3330;DHT22;1677;49.576;10.990;2023-07-31T05:17:29;18.80;99.40
3330;DHT22;1677;49.576;10.990;2023-07-31T05:19:55;18.50;99.90
3330;DHT22;1677;49.576;10.990;2023-07-31T05:22:20;18.30;99.90
3330;DHT22;1677;49.576;10.990;2023-07-31T05:24:46;18.10;99.90
3330;DHT22;1677;49.576;10.990;2023-07-31T05:27:11;18.10;99.90
3330;DHT22;1677;49.576;10.990;2023-07-31T05:29:38;18.20;99.90
3330;DHT22;1677;49.576;10.990;2023-07-31T05:32:03;18.20;99.90
3330;DHT22;1677;49.576;10.990;2023-07-31T05:34:29;18.20;99.90
3330;DHT22;1677;49.576;10.990;2023-07-31T05:36:54;18.40;99.90
3330;DHT22;1677;49.576;10.990;2023-07-31T05:39:20;18.40;99.90
3330;DHT22;1677;49.576;10.990;2023-07-31T05:41:45;18.50;99.90
3330;DHT22;1677;49.576;10.990;2023-07-31T05:44:11;19.00;99.90
3330;DHT22;1677;49.576;10.990;2023-07-31T05:46:36;19.70;99.60
3330;DHT22;1677;49.576;10.990;2023-07-31T05:49:02;20.10;98.80
3330;DHT22;1677;49.576;10.990;2023-07-31T05:51:27;20.60;97.70
3330;DHT22;1677;49.576;10.990;2023-07-31T05:53:53;20.40;98.00
3330;DHT22;1677;49.576;10.990;2023-07-31T05:56:18;20.00;98.10
3330;DHT22;1677;49.576;10.990;2023-07-31T05:58:44;19.60;99.00
3330;DHT22;1677;49.576;10.990;2023-07-31T06:01:09;19.20;99.80
3330;DHT22;1677;49.576;10.990;2023-07-31T06:03:35;18.90;99.90
3330;DHT22;1677;49.576;10.990;2023-07-31T06:06:00;18.60;99.90
3330;DHT22;1677;49.576;10.990;2023-07-31T06:08:26;18.50;99.90
3330;DHT22;1677;49.576;10.990;2023-07-31T06:10:51;18.50;99.90
3330;DHT22;1677;49.576;10.990;2023-07-31T06:13:17;18.50;99.90
3330;DHT22;1677;49.576;10.990;2023-07-31T06:15:42;18.50;99.90
3330;DHT22;1677;49.576;10.990;2023-07-31T06:18:08;18.50;99.90
3330;DHT22;1677;49.576;10.990;2023-07-31T06:20:33;18.50;99.90
3330;DHT22;1677;49.576;10.990;2023-07-31T06:22:59;18.60;99.90
3330;DHT22;1677;49.576;10.990;2023-07-31T06:25:25;19.20;99.90
3330;DHT22;1677;49.576;10.990;2023-07-31T06:27:50;20.20;99.00
3330;DHT22;1677;49.576;10.990;2023-07-31T06:30:16;21.00;97.80
3330;DHT22;1677;49.576;10.990;2023-07-31T06:32:42;21.00;96.60
3330;DHT22;1677;49.576;10.990;2023-07-31T06:35:08;20.60;97.40
3330;DHT22;1677;49.576;10.990;2023-07-31T06:37:33;20.10;97.80
3330;DHT22;1677;49.576;10.990;2023-07-31T06:39:59;19.80;99.00
3330;DHT22;1677;49.576;10.990;2023-07-31T06:42:24;19.70;99.20
3330;DHT22;1677;49.576;10.990;2023-07-31T06:44:50;19.60;99.60
3330;DHT22;1677;49.576;10.990;2023-07-31T06:47:16;19.60;99.70
3330;DHT22;1677;49.576;10.990;2023-07-31T06:49:41;19.70;99.70
3330;DHT22;1677;49.576;10.990;2023-07-31T06:52:07;19.80;99.50
3330;DHT22;1677;49.576;10.990;2023-07-31T06:54:32;20.00;99.80
3330;DHT22;1677;49.576;10.990;2023-07-31T06:56:58;20.00;99.60
3330;DHT22;1677;49.576;10.990;2023-07-31T06:59:23;20.10;99.20
3330;DHT22;1677;49.576;10.990;2023-07-31T07:01:49;20.30;99.50
3330;DHT22;1677;49.576;10.990;2023-07-31T07:04:14;20.50;99.70
3330;DHT22;1677;49.576;10.990;2023-07-31T07:06:40;21.10;98.30
3330;DHT22;1677;49.576;10.990;2023-07-31T07:09:05;22.00;96.90
3330;DHT22;1677;49.576;10.990;2023-07-31T07:11:31;22.80;96.00
3330;DHT22;1677;49.576;10.990;2023-07-31T07:13:56;23.40;93.90
3330;DHT22;1677;49.576;10.990;2023-07-31T07:16:22;23.50;92.80
3330;DHT22;1677;49.576;10.990;2023-07-31T07:18:47;23.00;92.20
3330;DHT22;1677;49.576;10.990;2023-07-31T07:21:13;22.90;93.30
3330;DHT22;1677;49.576;10.990;2023-07-31T07:23:41;22.60;92.90
3330;DHT22;1677;49.576;10.990;2023-07-31T07:26:07;22.30;93.00
3330;DHT22;1677;49.576;10.990;2023-07-31T07:28:32;21.90;93.70
3330;DHT22;1677;49.576;10.990;2023-07-31T07:30:57;21.50;94.50
3330;DHT22;1677;49.576;10.990;2023-07-31T07:33:23;21.20;95.10
3330;DHT22;1677;49.576;10.990;2023-07-31T07:35:49;21.00;95.30
3330;DHT22;1677;49.576;10.990;2023-07-31T07:38:14;20.80;96.40
3330;DHT22;1677;49.576;10.990;2023-07-31T07:40:40;20.60;96.30
3330;DHT22;1677;49.576;10.990;2023-07-31T07:43:06;20.60;97.00
3330;DHT22;1677;49.576;10.990;2023-07-31T07:45:31;20.70;96.20
3330;DHT22;1677;49.576;10.990;2023-07-31T07:47:57;21.10;96.40
3330;DHT22;1677;49.576;10.990;2023-07-31T07:50:24;22.00;95.80
3330;DHT22;1677;49.576;10.990;2023-07-31T07:52:50;22.90;93.90
3330;DHT22;1677;49.576;10.990;2023-07-31T07:55:15;23.30;92.70
3330;DHT22;1677;49.576;10.990;2023-07-31T07:57:41;23.10;91.60
3330;DHT22;1677;49.576;10.990;2023-07-31T08:00:06;22.70;92.70
3330;DHT22;1677;49.576;10.990;2023-07-31T08:02:32;22.50;93.10
3330;DHT22;1677;49.576;10.990;2023-07-31T08:04:57;22.20;93.20
3330;DHT22;1677;49.576;10.990;2023-07-31T08:07:23;21.80;93.80
3330;DHT22;1677;49.576;10.990;2023-07-31T08:09:48;21.70;94.20
3330;DHT22;1677;49.576;10.990;2023-07-31T08:12:14;21.70;94.80
3330;DHT22;1677;49.576;10.990;2023-07-31T08:14:39;21.80;94.50
3330;DHT22;1677;49.576;10.990;2023-07-31T08:17:05;22.00;94.80
3330;DHT22;1677;49.576;10.990;2023-07-31T08:19:30;22.50;94.20
3330;DHT22;1677;49.576;10.990;2023-07-31T08:21:56;22.90;92.60
3330;DHT22;1677;49.576;10.990;2023-07-31T08:24:21;23.10;92.00
3330;DHT22;1677;49.576;10.990;2023-07-31T08:26:47;23.60;92.10
3330;DHT22;1677;49.576;10.990;2023-07-31T08:29:12;24.40;90.80
3330;DHT22;1677;49.576;10.990;2023-07-31T08:31:38;25.50;87.90
3330;DHT22;1677;49.576;10.990;2023-07-31T08:34:03;25.50;86.80
3330;DHT22;1677;49.576;10.990;2023-07-31T08:36:29;25.50;87.40
3330;DHT22;1677;49.576;10.990;2023-07-31T08:38:54;25.40;85.70
3330;DHT22;1677;49.576;10.990;2023-07-31T08:41:20;25.20;84.70
3330;DHT22;1677;49.576;10.990;2023-07-31T08:43:45;25.30;86.60
3330;DHT22;1677;49.576;10.990;2023-07-31T08:46:11;25.70;88.20
3330;DHT22;1677;49.576;10.990;2023-07-31T08:48:37;26.00;85.00
3330;DHT22;1677;49.576;10.990;2023-07-31T08:51:03;26.50;83.00
3330;DHT22;1677;49.576;10.990;2023-07-31T08:53:29;26.80;80.40
3330;DHT22;1677;49.576;10.990;2023-07-31T08:55:54;26.80;79.40
3330;DHT22;1677;49.576;10.990;2023-07-31T08:58:21;27.00;79.80
3330;DHT22;1677;49.576;10.990;2023-07-31T09:00:48;27.70;78.70
3330;DHT22;1677;49.576;10.990;2023-07-31T09:03:17;27.90;75.30
3330;DHT22;1677;49.576;10.990;2023-07-31T09:05:44;28.70;73.50
3330;DHT22;1677;49.576;10.990;2023-07-31T09:08:10;29.50;67.60
3330;DHT22;1677;49.576;10.990;2023-07-31T09:10:40;30.60;67.30
3330;DHT22;1677;49.576;10.990;2023-07-31T09:13:05;31.10;62.40
3330;DHT22;1677;49.576;10.990;2023-07-31T09:15:31;30.70;63.00
3330;DHT22;1677;49.576;10.990;2023-07-31T09:18:00;29.80;63.50
3330;DHT22;1677;49.576;10.990;2023-07-31T09:20:26;29.00;66.20
3330;DHT22;1677;49.576;10.990;2023-07-31T09:22:51;28.50;67.40
3330;DHT22;1677;49.576;10.990;2023-07-31T09:25:18;28.20;70.80
3330;DHT22;1677;49.576;10.990;2023-07-31T09:30:13;27.90;70.00
3330;DHT22;1677;49.576;10.990;2023-07-31T09:32:38;27.30;72.10
3330;DHT22;1677;49.576;10.990;2023-07-31T09:37:51;27.30;74.10
3330;DHT22;1677;49.576;10.990;2023-07-31T09:42:51;28.30;71.70
3330;DHT22;1677;49.576;10.990;2023-07-31T09:45:17;28.20;68.60
3330;DHT22;1677;49.576;10.990;2023-07-31T09:47:47;28.00;68.20
3330;DHT22;1677;49.576;10.990;2023-07-31T09:50:15;27.70;68.50
3330;DHT22;1677;49.576;10.990;2023-07-31T09:52:43;27.00;70.00
3330;DHT22;1677;49.576;10.990;2023-07-31T09:55:09;26.50;74.70
3330;DHT22;1677;49.576;10.990;2023-07-31T09:57:39;26.30;74.80
3330;DHT22;1677;49.576;10.990;2023-07-31T10:00:05;26.00;75.40
3330;DHT22;1677;49.576;10.990;2023-07-31T10:02:31;25.60;78.00
3330;DHT22;1677;49.576;10.990;2023-07-31T10:04:57;25.60;77.50
3330;DHT22;1677;49.576;10.990;2023-07-31T10:07:26;25.90;76.40
3330;DHT22;1677;49.576;10.990;2023-07-31T10:09:53;25.60;76.30
3330;DHT22;1677;49.576;10.990;2023-07-31T10:12:20;25.30;78.00
3330;DHT22;1677;49.576;10.990;2023-07-31T10:14:47;25.10;80.10
3330;DHT22;1677;49.576;10.990;2023-07-31T10:17:13;25.40;81.10
3330;DHT22;1677;49.576;10.990;2023-07-31T10:19:40;26.00;76.20
3330;DHT22;1677;49.576;10.990;2023-07-31T10:22:06;26.60;74.80
3330;DHT22;1677;49.576;10.990;2023-07-31T10:24:33;27.00;72.00
3330;DHT22;1677;49.576;10.990;2023-07-31T10:26:59;27.80;70.70
3330;DHT22;1677;49.576;10.990;2023-07-31T10:29:25;28.50;67.70
3330;DHT22;1677;49.576;10.990;2023-07-31T10:31:51;29.20;66.20
3330;DHT22;1677;49.576;10.990;2023-07-31T10:34:17;30.50;61.40
3330;DHT22;1677;49.576;10.990;2023-07-31T10:36:43;30.20;59.30
3330;DHT22;1677;49.576;10.990;2023-07-31T10:39:32;29.70;60.70
3330;DHT22;1677;49.576;10.990;2023-07-31T10:41:53;29.70;60.90
3330;DHT22;1677;49.576;10.990;2023-07-31T10:44:19;28.50;62.50
3330;DHT22;1677;49.576;10.990;2023-07-31T10:46:45;28.10;63.30
3330;DHT22;1677;49.576;10.990;2023-07-31T10:49:12;29.20;64.20
3330;DHT22;1677;49.576;10.990;2023-07-31T10:51:46;29.80;61.60
3330;DHT22;1677;49.576;10.990;2023-07-31T10:54:13;30.80;59.60
3330;DHT22;1677;49.576;10.990;2023-07-31T10:56:45;31.30;57.10
3330;DHT22;1677;49.576;10.990;2023-07-31T10:59:13;31.80;57.80
3330;DHT22;1677;49.576;10.990;2023-07-31T11:01:55;31.20;55.90
3330;DHT22;1677;49.576;10.990;2023-07-31T11:04:24;30.10;57.10
3330;DHT22;1677;49.576;10.990;2023-07-31T11:06:57;28.50;59.20
3330;DHT22;1677;49.576;10.990;2023-07-31T11:09:24;27.40;62.30
3330;DHT22;1677;49.576;10.990;2023-07-31T11:11:50;26.60;67.80
3330;DHT22;1677;49.576;10.990;2023-07-31T11:14:17;26.10;67.80
3330;DHT22;1677;49.576;10.990;2023-07-31T11:16:42;25.60;69.70
3330;DHT22;1677;49.576;10.990;2023-07-31T11:19:08;25.10;71.50
3330;DHT22;1677;49.576;10.990;2023-07-31T11:21:33;24.80;73.50
3330;DHT22;1677;49.576;10.990;2023-07-31T11:23:59;24.50;75.40
3330;DHT22;1677;49.576;10.990;2023-07-31T11:26:25;24.40;76.50
3330;DHT22;1677;49.576;10.990;2023-07-31T11:28:50;24.90;75.50
3330;DHT22;1677;49.576;10.990;2023-07-31T11:31:17;25.40;74.10
3330;DHT22;1677;49.576;10.990;2023-07-31T11:33:42;26.00;74.00
3330;DHT22;1677;49.576;10.990;2023-07-31T11:36:17;26.40;70.70
3330;DHT22;1677;49.576;10.990;2023-07-31T11:38:43;26.50;69.80
3330;DHT22;1677;49.576;10.990;2023-07-31T11:41:08;26.40;69.40
3330;DHT22;1677;49.576;10.990;2023-07-31T11:43:34;26.00;70.50
3330;DHT22;1677;49.576;10.990;2023-07-31T11:46:01;25.60;70.90
3330;DHT22;1677;49.576;10.990;2023-07-31T11:48:32;25.20;73.30
3330;DHT22;1677;49.576;10.990;2023-07-31T11:51:02;25.00;74.70
3330;DHT22;1677;49.576;10.990;2023-07-31T11:53:33;24.70;75.60
3330;DHT22;1677;49.576;10.990;2023-07-31T11:56:00;24.40;77.30
3330;DHT22;1677;49.576;10.990;2023-07-31T11:58:26;24.30;79.30
3330;DHT22;1677;49.576;10.990;2023-07-31T12:00:52;24.20;79.40
3330;DHT22;1677;49.576;10.990;2023-07-31T12:03:18;24.40;80.00
3330;DHT22;1677;49.576;10.990;2023-07-31T12:05:43;25.10;77.30
3330;DHT22;1677;49.576;10.990;2023-07-31T12:08:10;25.90;73.40
3330;DHT22;1677;49.576;10.990;2023-07-31T12:10:37;26.50;72.50
3330;DHT22;1677;49.576;10.990;2023-07-31T12:15:34;26.60;67.60
3330;DHT22;1677;49.576;10.990;2023-07-31T12:18:00;26.00;69.40
3330;DHT22;1677;49.576;10.990;2023-07-31T12:20:29;25.50;71.40
3330;DHT22;1677;49.576;10.990;2023-07-31T12:22:56;25.10;72.70
3330;DHT22;1677;49.576;10.990;2023-07-31T12:25:21;24.80;74.20
3330;DHT22;1677;49.576;10.990;2023-07-31T12:27:47;24.50;74.50
3330;DHT22;1677;49.576;10.990;2023-07-31T12:32:57;24.10;77.70
3330;DHT22;1677;49.576;10.990;2023-07-31T12:35:22;23.90;79.00
3330;DHT22;1677;49.576;10.990;2023-07-31T12:37:48;23.90;79.00
3330;DHT22;1677;49.576;10.990;2023-07-31T12:40:14;24.40;77.30
3330;DHT22;1677;49.576;10.990;2023-07-31T12:42:40;25.10;76.10
3330;DHT22;1677;49.576;10.990;2023-07-31T12:45:06;25.80;72.80
3330;DHT22;1677;49.576;10.990;2023-07-31T12:47:31;26.20;71.90
3330;DHT22;1677;49.576;10.990;2023-07-31T12:49:57;26.50;72.20
3330;DHT22;1677;49.576;10.990;2023-07-31T12:52:22;25.80;71.00
3330;DHT22;1677;49.576;10.990;2023-07-31T12:54:48;25.70;71.40
3330;DHT22;1677;49.576;10.990;2023-07-31T12:57:14;25.80;71.90
3330;DHT22;1677;49.576;10.990;2023-07-31T12:59:39;26.10;73.90
3330;DHT22;1677;49.576;10.990;2023-07-31T13:02:05;26.10;72.60
3330;DHT22;1677;49.576;10.990;2023-07-31T13:04:30;26.10;69.40
3330;DHT22;1677;49.576;10.990;2023-07-31T13:06:56;26.10;72.40
3330;DHT22;1677;49.576;10.990;2023-07-31T13:09:21;26.20;73.50
3330;DHT22;1677;49.576;10.990;2023-07-31T13:11:47;26.20;71.50
3330;DHT22;1677;49.576;10.990;2023-07-31T13:14:12;26.30;71.60
3330;DHT22;1677;49.576;10.990;2023-07-31T13:16:38;26.70;70.30
3330;DHT22;1677;49.576;10.990;2023-07-31T13:19:03;27.50;69.10
3330;DHT22;1677;49.576;10.990;2023-07-31T13:21:29;28.10;65.20
3330;DHT22;1677;49.576;10.990;2023-07-31T13:23:54;28.30;62.70
3330;DHT22;1677;49.576;10.990;2023-07-31T13:26:23;28.20;65.30
3330;DHT22;1677;49.576;10.990;2023-07-31T13:28:48;27.90;65.30
3330;DHT22;1677;49.576;10.990;2023-07-31T13:31:14;27.30;65.50
3330;DHT22;1677;49.576;10.990;2023-07-31T13:33:39;26.90;68.00
3330;DHT22;1677;49.576;10.990;2023-07-31T13:36:05;26.50;67.70
3330;DHT22;1677;49.576;10.990;2023-07-31T13:38:30;26.40;69.50
3330;DHT22;1677;49.576;10.990;2023-07-31T13:40:56;26.30;68.50
3330;DHT22;1677;49.576;10.990;2023-07-31T13:43:21;26.00;70.00
3330;DHT22;1677;49.576;10.990;2023-07-31T13:45:47;26.10;70.10
3330;DHT22;1677;49.576;10.990;2023-07-31T13:48:12;26.10;70.90
3330;DHT22;1677;49.576;10.990;2023-07-31T13:50:38;26.10;70.50
3330;DHT22;1677;49.576;10.990;2023-07-31T13:53:03;26.70;69.50
3330;DHT22;1677;49.576;10.990;2023-07-31T13:55:29;27.50;67.70
3330;DHT22;1677;49.576;10.990;2023-07-31T13:57:54;28.20;65.40
3330;DHT22;1677;49.576;10.990;2023-07-31T14:00:20;28.50;64.40
3330;DHT22;1677;49.576;10.990;2023-07-31T14:02:45;28.50;64.00
3330;DHT22;1677;49.576;10.990;2023-07-31T14:05:11;28.20;65.50
3330;DHT22;1677;49.576;10.990;2023-07-31T14:07:36;27.80;64.70
3330;DHT22;1677;49.576;10.990;2023-07-31T14:10:02;27.20;66.20
3330;DHT22;1677;49.576;10.990;2023-07-31T14:12:29;26.70;67.70
3330;DHT22;1677;49.576;10.990;2023-07-31T14:14:55;26.40;69.30
3330;DHT22;1677;49.576;10.990;2023-07-31T14:17:20;26.10;67.10
3330;DHT22;1677;49.576;10.990;2023-07-31T14:19:46;25.60;69.00
3330;DHT22;1677;49.576;10.990;2023-07-31T14:22:11;25.20;70.50
3330;DHT22;1677;49.576;10.990;2023-07-31T14:24:37;25.10;72.60
3330;DHT22;1677;49.576;10.990;2023-07-31T14:27:03;25.30;72.70
3330;DHT22;1677;49.576;10.990;2023-07-31T14:29:29;25.80;70.40
3330;DHT22;1677;49.576;10.990;2023-07-31T14:31:54;26.50;69.90
3330;DHT22;1677;49.576;10.990;2023-07-31T14:34:20;27.30;68.20
3330;DHT22;1677;49.576;10.990;2023-07-31T14:36:46;27.60;65.30
3330;DHT22;1677;49.576;10.990;2023-07-31T14:39:11;27.50;64.70
3330;DHT22;1677;49.576;10.990;2023-07-31T14:41:37;27.30;64.80
3330;DHT22;1677;49.576;10.990;2023-07-31T14:44:02;26.80;65.80
3330;DHT22;1677;49.576;10.990;2023-07-31T14:46:28;26.30;68.00
3330;DHT22;1677;49.576;10.990;2023-07-31T14:48:53;26.00;67.30
3330;DHT22;1677;49.576;10.990;2023-07-31T14:51:19;25.70;69.00
3330;DHT22;1677;49.576;10.990;2023-07-31T14:53:44;25.40;71.50
3330;DHT22;1677;49.576;10.990;2023-07-31T14:56:10;25.10;71.20
3330;DHT22;1677;49.576;10.990;2023-07-31T14:58:36;24.90;72.90
3330;DHT22;1677;49.576;10.990;2023-07-31T15:01:01;24.70;73.50
3330;DHT22;1677;49.576;10.990;2023-07-31T15:03:27;24.60;73.90
3330;DHT22;1677;49.576;10.990;2023-07-31T15:05:52;25.10;72.90
3330;DHT22;1677;49.576;10.990;2023-07-31T15:08:18;25.60;72.30
3330;DHT22;1677;49.576;10.990;2023-07-31T15:10:44;26.20;70.10
3330;DHT22;1677;49.576;10.990;2023-07-31T15:13:10;26.80;67.20
3330;DHT22;1677;49.576;10.990;2023-07-31T15:15:35;26.90;66.20
3330;DHT22;1677;49.576;10.990;2023-07-31T15:18:01;26.80;66.00
3330;DHT22;1677;49.576;10.990;2023-07-31T15:20:26;26.20;67.90
3330;DHT22;1677;49.576;10.990;2023-07-31T15:22:51;25.90;68.90
3330;DHT22;1677;49.576;10.990;2023-07-31T15:25:17;25.50;70.30
3330;DHT22;1677;49.576;10.990;2023-07-31T15:27:43;25.20;71.50
3330;DHT22;1677;49.576;10.990;2023-07-31T15:30:08;24.80;74.00
3330;DHT22;1677;49.576;10.990;2023-07-31T15:32:34;24.70;74.50
3330;DHT22;1677;49.576;10.990;2023-07-31T15:35:02;24.60;75.90
3330;DHT22;1677;49.576;10.990;2023-07-31T15:37:27;24.50;76.30
3330;DHT22;1677;49.576;10.990;2023-07-31T15:39:53;24.40;75.70
3330;DHT22;1677;49.576;10.990;2023-07-31T15:42:18;24.60;76.90
3330;DHT22;1677;49.576;10.990;2023-07-31T15:44:44;25.20;73.20
3330;DHT22;1677;49.576;10.990;2023-07-31T15:47:09;26.00;69.70
3330;DHT22;1677;49.576;10.990;2023-07-31T15:49:35;26.50;68.50
3330;DHT22;1677;49.576;10.990;2023-07-31T15:52:00;26.70;69.10
3330;DHT22;1677;49.576;10.990;2023-07-31T15:54:26;26.80;68.10
3330;DHT22;1677;49.576;10.990;2023-07-31T15:56:51;26.60;69.10